MMMD/MID METAR and TAF weather

Enter ICAO airport designator
Station Type Date Time Source
MMMD METAR 2020/06/03 15:46 UTC NOAA

MMMD 031546Z 08010KT 4SM -RA BKN006 OVC060 26/25 A2980 RMK 8/77/


Station Type Date Time Source
MMMD Decoded METAR 2020/06/03 15:46 UTC NOAA

Merida / lic Manuel Crecencio, Mexico (MMMD) 20-56N 089-39W 11M
Jun 03, 2020 - 11:46 AM EDT / 2020.06.03 1546 UTC
Wind: from the E (080 degrees) at 12 MPH (10 KT):0
Visibility: 4 mile(s):0
Sky conditions: overcast
Weather: light rain
Temperature: 78 F (26 C)
Dew Point: 77 F (25 C)
Relative Humidity: 94%
Pressure (altimeter): 29.8 in. Hg (1009 hPa)
ob: MMMD 031546Z 08010KT 4SM -RA BKN006 OVC060 26/25 A2980 RMK 8/77/
cycle: 16

Station Type Date Time Source
MMMD TAF 2020/06/03 12:17 UTC NOAA

TAF MMMD 031013Z 0312/0418 08010KT 6SM -RA BKN006 OVC060 TX26/0317Z TN23/0312Z
TEMPO 0312/0315 2SM RA BKN005 OVC010CB
FM031800 13010G20KT 4SM -RA BKN015CB OVC100
TEMPO 0321/0401 3SM TSRA BKN005 OVC010CB
FM040200 13010KT 4SM -RA SCT005 BKN010CB OVC060
TEMPO 0410/0414 2SM RA OVC010CB

Example: see airport list